createdAt,value
2023-02-14T02:50:12.914Z,103189.47
2023-02-14T05:03:48.869Z,103158.34
2023-02-14T05:12:03.683Z,103153.34
2023-02-14T05:27:25.046Z,103141.69
2023-02-14T08:17:27.444Z,103141.56
2023-02-14T08:19:53.949Z,103150.72
2023-02-14T08:22:20.677Z,103148.91
2023-02-14T08:24:47.189Z,103157.72
2023-02-14T08:29:54.444Z,103147.84
2023-02-14T08:32:21.154Z,103158.56
2023-02-14T08:34:50.845Z,103166.69
2023-02-14T08:37:17.497Z,103162.03
2023-02-14T08:39:44.334Z,103167.16
2023-02-14T08:42:13.913Z,103173.44
2023-02-14T08:44:40.492Z,103171.63
2023-02-14T08:47:07.314Z,103172.34
2023-02-14T08:49:34.019Z,103180.56
2023-02-14T08:52:03.468Z,103176.03
2023-02-14T08:54:29.977Z,103174.88
2023-02-14T08:56:56.693Z,103175.22
2023-02-14T08:59:26.140Z,103176.97
2023-02-14T09:01:52.887Z,103173.91
2023-02-14T09:04:22.212Z,103175.13
2023-02-14T09:06:48.749Z,103176.09
2023-02-14T09:12:30.855Z,103181.38
2023-02-14T09:14:59.461Z,103176.88
2023-02-14T09:17:26.117Z,103173.88
2023-02-14T09:19:52.692Z,103178.38
2023-02-14T09:22:22.916Z,103180.06
2023-02-14T09:24:49.735Z,103184.63
2023-02-14T09:27:16.535Z,103185.59
2023-02-14T09:30:11.662Z,103179.06
2023-02-14T09:32:41.630Z,103180.31
2023-02-14T09:35:37.658Z,103172.97
2023-02-14T09:56:16.569Z,103188.38
2023-02-14T10:06:07.274Z,103181.63
2023-02-14T10:09:06.143Z,103191.47
2023-02-14T10:11:41.317Z,103190.78
2023-02-14T10:14:12.117Z,103186.84
2023-02-14T10:16:51.069Z,103191.38
2023-02-14T10:19:33.144Z,103185.91
2023-02-14T10:22:23.436Z,103184.06
2023-02-14T10:25:01.755Z,103175.53
2023-02-14T10:31:04.625Z,103177.16
2023-02-14T10:33:35.966Z,103174.75
2023-02-14T10:37:11.501Z,103167.13
2023-02-14T10:43:16.801Z,103159.19
2023-02-14T10:46:15.063Z,103161.03
2023-02-14T10:48:44.719Z,103166.44
2023-02-14T10:54:44.966Z,103159.53
2023-02-14T11:03:58.926Z,103151.56
2023-02-14T11:06:26.719Z,103151.31
2023-02-14T11:08:54.678Z,103151.88
2023-02-14T11:11:41.228Z,103156.72
2023-02-14T11:16:51.748Z,103139.47
2023-02-14T11:19:23.109Z,103148.19
2023-02-14T11:21:53.984Z,103147.56
2023-02-14T11:24:35.665Z,103146.75
2023-02-14T11:27:04.731Z,103144.59
2023-02-14T11:29:36.471Z,103140.63
2023-02-14T11:32:07.463Z,103142.81
2023-02-14T11:34:40.078Z,103139.94
2023-02-14T11:37:55.740Z,103136.38
2023-02-14T11:40:57.341Z,103139.34
2023-02-14T11:43:30.543Z,103131.13
2023-02-14T11:46:53.332Z,103133.84
2023-02-14T11:49:35.711Z,103131.34
2023-02-14T12:04:56.356Z,103112.22
2023-02-14T12:14:23.720Z,103108.56
2023-02-14T12:17:21.023Z,103104.41
2023-02-14T12:43:10.450Z,103059.16
2023-02-14T12:49:36.508Z,103052.75
2023-02-14T12:52:26.100Z,103038.28
2023-02-14T12:57:59.923Z,103035.50
2023-02-14T13:00:53.318Z,103032.38
2023-02-14T13:07:00.542Z,103031.28
2023-02-14T13:15:45.875Z,103023.59
2023-02-14T13:18:27.360Z,103032.41
2023-02-14T13:21:05.472Z,103021.66
2023-02-14T13:23:43.926Z,103018.69
2023-02-14T13:30:07.295Z,103015.53
2023-02-14T13:36:29.950Z,103016.22
2023-02-14T13:39:06.235Z,103010.09
2023-02-14T13:41:43.646Z,103013.75
2023-02-14T13:45:00.559Z,103003.41
2023-02-14T13:48:08.347Z,103016.16
2023-02-14T13:50:37.351Z,103005.34
2023-02-14T14:03:58.374Z,102998.84
2023-02-14T14:06:35.209Z,103007.34
2023-02-14T14:09:02.417Z,103000.72
2023-02-14T14:12:12.825Z,103000.41
2023-02-14T15:04:42.090Z,102980.13
2023-02-14T15:09:13.734Z,102971.41
2023-02-14T15:12:09.253Z,102971.81
2023-02-14T15:14:36.394Z,102973.09
2023-02-14T15:17:18.087Z,102973.19
2023-02-14T15:23:15.946Z,102962.44
2023-02-14T15:25:44.898Z,102954.34
2023-02-14T15:29:13.771Z,102949.19
2023-02-14T15:31:54.858Z,102949.28
2023-02-14T15:34:26.576Z,102955.00
2023-02-14T15:39:46.677Z,102951.38
2023-02-14T15:42:32.168Z,102950.00
2023-02-14T15:45:30.743Z,102948.84
2023-02-14T15:51:00.056Z,102940.06
2023-02-14T15:54:08.929Z,102937.59
2023-02-14T15:56:57.995Z,102938.28
2023-02-14T15:59:31.742Z,102933.84
2023-02-14T16:08:58.353Z,102931.28
2023-02-14T16:11:44.376Z,102925.94
2023-02-14T16:18:34.712Z,102918.38
2023-02-14T16:21:20.110Z,102916.94
2023-02-14T16:30:41.503Z,102920.44
2023-02-14T16:33:35.320Z,102871.19
2023-02-14T16:43:06.802Z,102917.66
2023-02-14T16:49:59.537Z,102925.56
2023-02-14T16:52:51.271Z,102919.31
2023-02-14T16:55:20.060Z,102916.59
2023-02-14T16:57:47.972Z,102920.25
2023-02-14T17:00:14.744Z,102920.25
2023-02-14T17:02:44.281Z,102926.41
2023-02-14T17:05:34.614Z,102922.91
2023-02-14T17:08:02.097Z,102927.44
2023-02-14T17:10:34.893Z,102929.44
2023-02-14T17:13:03.095Z,102935.41
2023-02-14T17:15:52.852Z,102924.94
2023-02-14T17:18:21.913Z,102908.81
2023-02-14T17:20:48.869Z,102916.09
2023-02-14T17:23:15.898Z,102923.75
2023-02-14T17:25:42.360Z,102917.47
2023-02-14T17:28:08.784Z,102921.16
2023-02-14T17:30:41.494Z,102914.13
2023-02-14T17:33:08.119Z,102918.31
2023-02-14T17:35:37.932Z,102920.25
2023-02-14T17:38:05.177Z,102919.47
2023-02-14T17:40:31.882Z,102920.31
2023-02-14T17:43:05.235Z,102914.31
2023-02-14T17:45:31.844Z,102915.97
2023-02-14T17:50:39.271Z,102909.03
2023-02-14T17:53:06.120Z,102904.75
2023-02-14T17:55:33.056Z,102908.09
2023-02-14T17:58:10.605Z,102907.84
2023-02-14T18:00:37.468Z,102901.91
2023-02-14T18:03:08.599Z,102894.63
2023-02-14T18:08:39.497Z,102899.50
2023-02-14T18:11:11.176Z,102896.69
2023-02-14T18:13:39.901Z,102888.53
2023-02-14T19:52:41.865Z,102825.16
2023-02-14T22:08:49.802Z,102736.38
2023-02-14T22:14:22.269Z,102742.84
2023-02-14T22:35:25.012Z,102717.03
2023-02-14T22:49:00.963Z,102704.00
2023-02-14T23:09:10.511Z,102687.59
2023-02-14T23:15:49.532Z,102687.75
2023-02-14T23:18:58.739Z,102700.09
2023-02-14T23:28:58.567Z,102685.25
2023-02-14T23:41:55.401Z,102686.97
2023-02-14T23:44:32.507Z,102681.66
2023-02-14T23:47:34.462Z,102685.19
2023-02-14T23:56:51.437Z,102692.22
